sensor_id;sensor_type;location;lat;lon;timestamp;P1;durP1;ratioP1;P2;durP2;ratioP2
51495;SDS011;37572;52.094;4.870;2024-03-08T00:01:11;34.88;;;17.92;;
51495;SDS011;37572;52.094;4.870;2024-03-08T00:03:37;36.25;;;17.55;;
51495;SDS011;37572;52.094;4.870;2024-03-08T00:06:03;34.13;;;16.43;;
51495;SDS011;37572;52.094;4.870;2024-03-08T00:08:29;33.05;;;15.18;;
51495;SDS011;37572;52.094;4.870;2024-03-08T00:10:55;31.88;;;16.27;;
51495;SDS011;37572;52.094;4.870;2024-03-08T00:13:21;34.60;;;16.70;;
51495;SDS011;37572;52.094;4.870;2024-03-08T00:15:46;32.67;;;16.05;;
51495;SDS011;37572;52.094;4.870;2024-03-08T00:18:12;33.33;;;15.05;;
51495;SDS011;37572;52.094;4.870;2024-03-08T00:20:37;36.17;;;16.77;;
51495;SDS011;37572;52.094;4.870;2024-03-08T00:23:03;34.25;;;16.63;;
51495;SDS011;37572;52.094;4.870;2024-03-08T00:25:28;33.83;;;16.55;;
51495;SDS011;37572;52.094;4.870;2024-03-08T00:27:54;33.03;;;15.77;;
51495;SDS011;37572;52.094;4.870;2024-03-08T00:30:22;31.52;;;16.30;;
51495;SDS011;37572;52.094;4.870;2024-03-08T00:32:48;35.22;;;16.40;;
51495;SDS011;37572;52.094;4.870;2024-03-08T00:35:14;33.95;;;16.23;;
51495;SDS011;37572;52.094;4.870;2024-03-08T00:37:39;32.63;;;16.10;;
51495;SDS011;37572;52.094;4.870;2024-03-08T00:40:06;33.70;;;17.35;;
51495;SDS011;37572;52.094;4.870;2024-03-08T00:42:34;33.60;;;16.85;;
51495;SDS011;37572;52.094;4.870;2024-03-08T00:44:59;32.63;;;16.00;;
51495;SDS011;37572;52.094;4.870;2024-03-08T00:47:25;34.25;;;16.10;;
51495;SDS011;37572;52.094;4.870;2024-03-08T00:49:50;33.97;;;16.55;;
51495;SDS011;37572;52.094;4.870;2024-03-08T00:52:16;31.70;;;15.32;;
51495;SDS011;37572;52.094;4.870;2024-03-08T00:54:43;28.25;;;16.27;;
51495;SDS011;37572;52.094;4.870;2024-03-08T00:57:08;36.55;;;18.98;;
51495;SDS011;37572;52.094;4.870;2024-03-08T00:59:34;31.60;;;17.33;;
51495;SDS011;37572;52.094;4.870;2024-03-08T01:02:00;34.10;;;16.83;;
51495;SDS011;37572;52.094;4.870;2024-03-08T01:04:26;29.83;;;15.57;;
51495;SDS011;37572;52.094;4.870;2024-03-08T01:06:54;36.13;;;16.45;;
51495;SDS011;37572;52.094;4.870;2024-03-08T01:09:21;34.78;;;16.70;;
51495;SDS011;37572;52.094;4.870;2024-03-08T01:11:51;33.17;;;15.98;;
51495;SDS011;37572;52.094;4.870;2024-03-08T01:14:17;33.40;;;17.08;;
51495;SDS011;37572;52.094;4.870;2024-03-08T01:16:43;28.10;;;15.27;;
51495;SDS011;37572;52.094;4.870;2024-03-08T01:19:08;30.75;;;16.38;;
51495;SDS011;37572;52.094;4.870;2024-03-08T01:21:34;31.65;;;16.45;;
51495;SDS011;37572;52.094;4.870;2024-03-08T01:23:59;34.40;;;15.47;;
51495;SDS011;37572;52.094;4.870;2024-03-08T01:26:26;30.95;;;16.15;;
51495;SDS011;37572;52.094;4.870;2024-03-08T01:28:51;28.70;;;15.80;;
51495;SDS011;37572;52.094;4.870;2024-03-08T01:31:16;34.87;;;17.53;;
51495;SDS011;37572;52.094;4.870;2024-03-08T01:33:42;30.08;;;15.30;;
51495;SDS011;37572;52.094;4.870;2024-03-08T01:36:09;34.97;;;16.63;;
51495;SDS011;37572;52.094;4.870;2024-03-08T01:38:34;33.40;;;16.48;;
51495;SDS011;37572;52.094;4.870;2024-03-08T01:41:01;31.98;;;16.25;;
51495;SDS011;37572;52.094;4.870;2024-03-08T01:43:27;28.35;;;15.20;;
51495;SDS011;37572;52.094;4.870;2024-03-08T01:45:58;28.52;;;14.98;;
51495;SDS011;37572;52.094;4.870;2024-03-08T01:48:24;29.02;;;16.15;;
51495;SDS011;37572;52.094;4.870;2024-03-08T01:50:51;29.95;;;16.10;;
51495;SDS011;37572;52.094;4.870;2024-03-08T01:53:18;32.53;;;16.50;;
51495;SDS011;37572;52.094;4.870;2024-03-08T01:55:47;33.88;;;18.92;;
51495;SDS011;37572;52.094;4.870;2024-03-08T01:58:13;35.63;;;16.52;;
51495;SDS011;37572;52.094;4.870;2024-03-08T02:00:44;34.72;;;16.58;;
51495;SDS011;37572;52.094;4.870;2024-03-08T02:03:11;31.65;;;16.40;;
51495;SDS011;37572;52.094;4.870;2024-03-08T02:05:37;37.17;;;16.40;;
51495;SDS011;37572;52.094;4.870;2024-03-08T02:08:05;31.92;;;15.93;;
51495;SDS011;37572;52.094;4.870;2024-03-08T02:10:32;30.25;;;16.55;;
51495;SDS011;37572;52.094;4.870;2024-03-08T02:12:59;33.42;;;15.88;;
51495;SDS011;37572;52.094;4.870;2024-03-08T02:15:26;27.30;;;16.35;;
51495;SDS011;37572;52.094;4.870;2024-03-08T02:18:16;32.70;;;16.90;;
51495;SDS011;37572;52.094;4.870;2024-03-08T02:20:42;33.70;;;16.48;;
51495;SDS011;37572;52.094;4.870;2024-03-08T02:23:08;32.72;;;18.10;;
51495;SDS011;37572;52.094;4.870;2024-03-08T02:25:33;31.50;;;16.77;;
51495;SDS011;37572;52.094;4.870;2024-03-08T02:27:59;29.63;;;15.90;;
51495;SDS011;37572;52.094;4.870;2024-03-08T02:30:25;34.10;;;16.87;;
51495;SDS011;37572;52.094;4.870;2024-03-08T02:32:54;31.08;;;16.77;;
51495;SDS011;37572;52.094;4.870;2024-03-08T02:35:20;36.67;;;17.23;;
51495;SDS011;37572;52.094;4.870;2024-03-08T02:37:46;34.28;;;17.73;;
51495;SDS011;37572;52.094;4.870;2024-03-08T02:40:12;29.10;;;16.92;;
51495;SDS011;37572;52.094;4.870;2024-03-08T02:42:38;33.53;;;16.98;;
51495;SDS011;37572;52.094;4.870;2024-03-08T02:45:04;34.33;;;16.83;;
51495;SDS011;37572;52.094;4.870;2024-03-08T02:47:30;34.45;;;18.13;;
51495;SDS011;37572;52.094;4.870;2024-03-08T02:49:56;32.67;;;20.85;;
51495;SDS011;37572;52.094;4.870;2024-03-08T02:52:21;31.38;;;16.08;;
51495;SDS011;37572;52.094;4.870;2024-03-08T02:54:47;36.55;;;17.15;;
51495;SDS011;37572;52.094;4.870;2024-03-08T02:57:13;29.75;;;17.48;;
51495;SDS011;37572;52.094;4.870;2024-03-08T02:59:39;29.02;;;15.52;;
51495;SDS011;37572;52.094;4.870;2024-03-08T03:02:05;32.13;;;17.20;;
51495;SDS011;37572;52.094;4.870;2024-03-08T03:04:31;30.42;;;17.27;;
51495;SDS011;37572;52.094;4.870;2024-03-08T03:06:59;34.33;;;18.50;;
51495;SDS011;37572;52.094;4.870;2024-03-08T03:09:25;36.28;;;18.67;;
51495;SDS011;37572;52.094;4.870;2024-03-08T03:11:53;33.47;;;17.60;;
51495;SDS011;37572;52.094;4.870;2024-03-08T03:14:20;36.78;;;18.27;;
51495;SDS011;37572;52.094;4.870;2024-03-08T03:16:46;34.35;;;19.77;;
51495;SDS011;37572;52.094;4.870;2024-03-08T03:19:11;31.48;;;17.67;;
51495;SDS011;37572;52.094;4.870;2024-03-08T03:21:37;32.57;;;17.80;;
51495;SDS011;37572;52.094;4.870;2024-03-08T03:24:03;33.55;;;17.08;;
51495;SDS011;37572;52.094;4.870;2024-03-08T03:26:30;33.70;;;19.92;;
51495;SDS011;37572;52.094;4.870;2024-03-08T03:28:56;32.55;;;18.75;;
51495;SDS011;37572;52.094;4.870;2024-03-08T03:31:22;38.42;;;19.55;;
51495;SDS011;37572;52.094;4.870;2024-03-08T03:33:49;32.03;;;17.35;;
51495;SDS011;37572;52.094;4.870;2024-03-08T03:36:16;34.30;;;16.95;;
51495;SDS011;37572;52.094;4.870;2024-03-08T03:38:43;36.13;;;19.75;;
51495;SDS011;37572;52.094;4.870;2024-03-08T03:41:08;32.22;;;18.02;;
51495;SDS011;37572;52.094;4.870;2024-03-08T03:43:37;35.53;;;17.42;;
51495;SDS011;37572;52.094;4.870;2024-03-08T03:46:06;33.72;;;18.45;;
51495;SDS011;37572;52.094;4.870;2024-03-08T03:48:32;32.13;;;16.98;;
51495;SDS011;37572;52.094;4.870;2024-03-08T03:50:58;35.42;;;17.90;;
51495;SDS011;37572;52.094;4.870;2024-03-08T03:53:23;33.17;;;17.87;;
51495;SDS011;37572;52.094;4.870;2024-03-08T03:55:50;36.20;;;18.58;;
51495;SDS011;37572;52.094;4.870;2024-03-08T03:58:16;31.10;;;17.35;;
51495;SDS011;37572;52.094;4.870;2024-03-08T04:00:47;34.85;;;17.67;;
51495;SDS011;37572;52.094;4.870;2024-03-08T04:03:12;34.45;;;18.33;;
51495;SDS011;37572;52.094;4.870;2024-03-08T04:05:38;32.23;;;17.57;;
51495;SDS011;37572;52.094;4.870;2024-03-08T04:08:04;36.03;;;18.05;;
51495;SDS011;37572;52.094;4.870;2024-03-08T04:10:29;34.90;;;17.77;;
51495;SDS011;37572;52.094;4.870;2024-03-08T04:12:55;36.47;;;18.55;;
51495;SDS011;37572;52.094;4.870;2024-03-08T04:15:21;33.33;;;17.30;;
51495;SDS011;37572;52.094;4.870;2024-03-08T04:17:48;33.72;;;17.20;;
51495;SDS011;37572;52.094;4.870;2024-03-08T04:20:13;32.20;;;19.10;;
51495;SDS011;37572;52.094;4.870;2024-03-08T04:22:39;34.13;;;20.38;;
51495;SDS011;37572;52.094;4.870;2024-03-08T04:25:05;33.13;;;17.58;;
51495;SDS011;37572;52.094;4.870;2024-03-08T04:27:32;34.10;;;17.70;;
51495;SDS011;37572;52.094;4.870;2024-03-08T04:29:58;35.90;;;17.83;;
51495;SDS011;37572;52.094;4.870;2024-03-08T04:32:24;31.95;;;18.40;;
51495;SDS011;37572;52.094;4.870;2024-03-08T04:34:49;32.72;;;18.20;;
51495;SDS011;37572;52.094;4.870;2024-03-08T04:37:15;33.53;;;17.92;;
51495;SDS011;37572;52.094;4.870;2024-03-08T04:39:43;35.25;;;17.42;;
51495;SDS011;37572;52.094;4.870;2024-03-08T04:42:08;35.63;;;17.63;;
51495;SDS011;37572;52.094;4.870;2024-03-08T04:44:39;34.22;;;18.25;;
51495;SDS011;37572;52.094;4.870;2024-03-08T04:47:04;33.40;;;17.08;;
51495;SDS011;37572;52.094;4.870;2024-03-08T04:49:32;35.72;;;17.90;;
51495;SDS011;37572;52.094;4.870;2024-03-08T04:52:00;34.80;;;18.77;;
51495;SDS011;37572;52.094;4.870;2024-03-08T04:54:29;34.75;;;18.83;;
51495;SDS011;37572;52.094;4.870;2024-03-08T04:56:55;32.88;;;17.77;;
51495;SDS011;37572;52.094;4.870;2024-03-08T04:59:20;33.65;;;17.75;;
51495;SDS011;37572;52.094;4.870;2024-03-08T05:01:46;34.50;;;17.95;;
51495;SDS011;37572;52.094;4.870;2024-03-08T05:04:12;35.15;;;18.60;;
51495;SDS011;37572;52.094;4.870;2024-03-08T05:06:38;35.72;;;18.73;;
51495;SDS011;37572;52.094;4.870;2024-03-08T05:09:03;33.67;;;18.13;;
51495;SDS011;37572;52.094;4.870;2024-03-08T05:11:44;34.63;;;19.63;;
51495;SDS011;37572;52.094;4.870;2024-03-08T05:14:11;33.58;;;20.70;;
51495;SDS011;37572;52.094;4.870;2024-03-08T05:16:45;34.50;;;17.38;;
51495;SDS011;37572;52.094;4.870;2024-03-08T05:19:13;38.63;;;19.38;;
51495;SDS011;37572;52.094;4.870;2024-03-08T05:21:41;39.08;;;19.33;;
51495;SDS011;37572;52.094;4.870;2024-03-08T05:24:08;32.45;;;17.88;;
51495;SDS011;37572;52.094;4.870;2024-03-08T05:26:35;34.40;;;18.65;;
51495;SDS011;37572;52.094;4.870;2024-03-08T05:29:00;36.95;;;17.50;;
51495;SDS011;37572;52.094;4.870;2024-03-08T05:31:25;38.97;;;20.50;;
51495;SDS011;37572;52.094;4.870;2024-03-08T05:33:51;33.60;;;17.38;;
51495;SDS011;37572;52.094;4.870;2024-03-08T05:36:19;31.02;;;18.20;;
51495;SDS011;37572;52.094;4.870;2024-03-08T05:38:44;34.75;;;20.33;;
51495;SDS011;37572;52.094;4.870;2024-03-08T05:41:10;34.50;;;17.15;;
51495;SDS011;37572;52.094;4.870;2024-03-08T05:43:37;36.33;;;18.25;;
51495;SDS011;37572;52.094;4.870;2024-03-08T05:46:03;31.88;;;18.00;;
51495;SDS011;37572;52.094;4.870;2024-03-08T05:48:29;36.00;;;17.95;;
51495;SDS011;37572;52.094;4.870;2024-03-08T05:50:57;35.67;;;21.58;;
51495;SDS011;37572;52.094;4.870;2024-03-08T05:53:22;35.08;;;19.65;;
51495;SDS011;37572;52.094;4.870;2024-03-08T05:55:48;34.53;;;18.57;;
51495;SDS011;37572;52.094;4.870;2024-03-08T05:58:14;38.03;;;20.80;;
51495;SDS011;37572;52.094;4.870;2024-03-08T06:00:40;35.30;;;18.80;;
51495;SDS011;37572;52.094;4.870;2024-03-08T06:03:05;32.73;;;18.37;;
51495;SDS011;37572;52.094;4.870;2024-03-08T06:05:30;34.33;;;18.55;;
51495;SDS011;37572;52.094;4.870;2024-03-08T06:07:56;34.85;;;17.25;;
51495;SDS011;37572;52.094;4.870;2024-03-08T06:10:21;35.15;;;18.50;;
51495;SDS011;37572;52.094;4.870;2024-03-08T06:12:47;35.50;;;18.83;;
51495;SDS011;37572;52.094;4.870;2024-03-08T06:15:12;32.10;;;18.10;;
51495;SDS011;37572;52.094;4.870;2024-03-08T06:17:41;33.85;;;20.17;;
51495;SDS011;37572;52.094;4.870;2024-03-08T06:20:06;34.00;;;20.17;;
51495;SDS011;37572;52.094;4.870;2024-03-08T06:22:38;33.42;;;19.58;;
51495;SDS011;37572;52.094;4.870;2024-03-08T06:25:07;33.17;;;17.67;;
51495;SDS011;37572;52.094;4.870;2024-03-08T06:27:33;33.65;;;17.70;;
51495;SDS011;37572;52.094;4.870;2024-03-08T06:29:59;32.75;;;17.98;;
51495;SDS011;37572;52.094;4.870;2024-03-08T06:32:25;37.35;;;17.67;;
51495;SDS011;37572;52.094;4.870;2024-03-08T06:34:50;31.35;;;18.17;;
51495;SDS011;37572;52.094;4.870;2024-03-08T06:37:16;35.13;;;18.55;;
51495;SDS011;37572;52.094;4.870;2024-03-08T06:39:47;33.33;;;18.58;;
51495;SDS011;37572;52.094;4.870;2024-03-08T06:42:20;33.63;;;17.73;;
51495;SDS011;37572;52.094;4.870;2024-03-08T06:44:45;36.45;;;18.33;;
51495;SDS011;37572;52.094;4.870;2024-03-08T06:47:14;36.45;;;18.95;;
51495;SDS011;37572;52.094;4.870;2024-03-08T06:49:41;35.03;;;19.92;;
51495;SDS011;37572;52.094;4.870;2024-03-08T06:52:07;30.88;;;17.58;;
51495;SDS011;37572;52.094;4.870;2024-03-08T06:54:34;33.13;;;17.38;;
51495;SDS011;37572;52.094;4.870;2024-03-08T06:57:01;34.67;;;18.60;;
51495;SDS011;37572;52.094;4.870;2024-03-08T06:59:28;32.80;;;20.45;;
51495;SDS011;37572;52.094;4.870;2024-03-08T07:01:53;36.38;;;19.17;;
51495;SDS011;37572;52.094;4.870;2024-03-08T07:04:19;30.38;;;18.33;;
51495;SDS011;37572;52.094;4.870;2024-03-08T07:06:45;32.70;;;20.17;;
51495;SDS011;37572;52.094;4.870;2024-03-08T07:09:10;34.13;;;18.40;;
51495;SDS011;37572;52.094;4.870;2024-03-08T07:11:36;32.22;;;18.55;;
51495;SDS011;37572;52.094;4.870;2024-03-08T07:14:02;31.55;;;18.15;;
51495;SDS011;37572;52.094;4.870;2024-03-08T07:16:30;33.50;;;18.52;;
51495;SDS011;37572;52.094;4.870;2024-03-08T07:18:56;30.08;;;17.40;;
51495;SDS011;37572;52.094;4.870;2024-03-08T07:21:22;31.30;;;17.73;;
51495;SDS011;37572;52.094;4.870;2024-03-08T07:23:49;32.92;;;19.15;;
51495;SDS011;37572;52.094;4.870;2024-03-08T07:26:26;28.40;;;16.90;;
51495;SDS011;37572;52.094;4.870;2024-03-08T07:28:52;32.17;;;16.55;;
51495;SDS011;37572;52.094;4.870;2024-03-08T07:31:21;32.55;;;17.83;;
51495;SDS011;37572;52.094;4.870;2024-03-08T07:33:52;29.85;;;16.85;;
51495;SDS011;37572;52.094;4.870;2024-03-08T07:36:18;29.35;;;17.33;;
51495;SDS011;37572;52.094;4.870;2024-03-08T07:38:47;29.25;;;17.38;;
51495;SDS011;37572;52.094;4.870;2024-03-08T07:41:12;29.53;;;17.20;;
51495;SDS011;37572;52.094;4.870;2024-03-08T07:43:38;26.90;;;17.58;;
51495;SDS011;37572;52.094;4.870;2024-03-08T07:46:03;25.15;;;16.10;;
51495;SDS011;37572;52.094;4.870;2024-03-08T07:48:29;29.20;;;16.40;;
51495;SDS011;37572;52.094;4.870;2024-03-08T07:50:55;28.35;;;17.77;;
51495;SDS011;37572;52.094;4.870;2024-03-08T07:53:21;32.60;;;17.48;;
51495;SDS011;37572;52.094;4.870;2024-03-08T07:55:46;32.20;;;18.23;;
51495;SDS011;37572;52.094;4.870;2024-03-08T07:58:12;28.83;;;16.67;;
51495;SDS011;37572;52.094;4.870;2024-03-08T08:00:38;28.58;;;15.93;;
51495;SDS011;37572;52.094;4.870;2024-03-08T08:03:04;32.22;;;18.90;;
51495;SDS011;37572;52.094;4.870;2024-03-08T08:05:30;30.15;;;17.35;;
51495;SDS011;37572;52.094;4.870;2024-03-08T08:08:00;29.10;;;18.38;;
51495;SDS011;37572;52.094;4.870;2024-03-08T08:10:28;29.60;;;16.77;;
51495;SDS011;37572;52.094;4.870;2024-03-08T08:12:53;30.08;;;17.20;;
51495;SDS011;37572;52.094;4.870;2024-03-08T08:15:19;27.63;;;16.55;;
51495;SDS011;37572;52.094;4.870;2024-03-08T08:17:45;27.20;;;16.88;;
51495;SDS011;37572;52.094;4.870;2024-03-08T08:20:11;27.52;;;16.75;;
51495;SDS011;37572;52.094;4.870;2024-03-08T08:22:38;28.20;;;16.52;;
51495;SDS011;37572;52.094;4.870;2024-03-08T08:25:08;26.25;;;15.80;;
51495;SDS011;37572;52.094;4.870;2024-03-08T08:27:34;27.92;;;16.60;;
51495;SDS011;37572;52.094;4.870;2024-03-08T08:30:01;29.98;;;17.25;;
51495;SDS011;37572;52.094;4.870;2024-03-08T08:32:27;31.48;;;19.50;;
51495;SDS011;37572;52.094;4.870;2024-03-08T08:34:53;28.02;;;16.73;;
51495;SDS011;37572;52.094;4.870;2024-03-08T08:37:18;30.93;;;17.07;;
51495;SDS011;37572;52.094;4.870;2024-03-08T08:39:43;30.08;;;18.45;;
51495;SDS011;37572;52.094;4.870;2024-03-08T08:42:09;27.95;;;16.63;;
51495;SDS011;37572;52.094;4.870;2024-03-08T08:44:35;28.08;;;16.92;;
51495;SDS011;37572;52.094;4.870;2024-03-08T08:47:00;29.38;;;18.33;;
51495;SDS011;37572;52.094;4.870;2024-03-08T08:49:28;31.52;;;17.20;;
51495;SDS011;37572;52.094;4.870;2024-03-08T08:51:53;28.60;;;17.23;;
51495;SDS011;37572;52.094;4.870;2024-03-08T08:54:19;28.35;;;16.77;;
51495;SDS011;37572;52.094;4.870;2024-03-08T08:56:45;26.23;;;16.35;;
51495;SDS011;37572;52.094;4.870;2024-03-08T08:59:12;29.45;;;16.85;;
51495;SDS011;37572;52.094;4.870;2024-03-08T09:01:39;27.30;;;16.20;;
51495;SDS011;37572;52.094;4.870;2024-03-08T09:04:05;29.80;;;16.63;;
51495;SDS011;37572;52.094;4.870;2024-03-08T09:06:31;29.85;;;17.02;;
51495;SDS011;37572;52.094;4.870;2024-03-08T09:08:56;30.95;;;18.90;;
51495;SDS011;37572;52.094;4.870;2024-03-08T09:11:22;27.38;;;16.48;;
51495;SDS011;37572;52.094;4.870;2024-03-08T09:13:50;28.60;;;17.25;;
51495;SDS011;37572;52.094;4.870;2024-03-08T09:16:15;26.42;;;15.38;;
51495;SDS011;37572;52.094;4.870;2024-03-08T09:18:41;28.38;;;15.90;;
51495;SDS011;37572;52.094;4.870;2024-03-08T09:21:06;24.77;;;15.35;;
51495;SDS011;37572;52.094;4.870;2024-03-08T09:23:35;31.73;;;17.95;;
51495;SDS011;37572;52.094;4.870;2024-03-08T09:26:01;36.72;;;17.90;;
51495;SDS011;37572;52.094;4.870;2024-03-08T09:28:28;27.42;;;17.40;;
51495;SDS011;37572;52.094;4.870;2024-03-08T09:30:53;26.42;;;16.02;;
51495;SDS011;37572;52.094;4.870;2024-03-08T09:33:19;26.40;;;15.25;;
51495;SDS011;37572;52.094;4.870;2024-03-08T09:35:46;25.90;;;14.60;;
51495;SDS011;37572;52.094;4.870;2024-03-08T09:38:12;27.40;;;16.00;;
51495;SDS011;37572;52.094;4.870;2024-03-08T09:40:38;26.80;;;15.52;;
51495;SDS011;37572;52.094;4.870;2024-03-08T09:43:06;26.08;;;16.02;;
51495;SDS011;37572;52.094;4.870;2024-03-08T09:45:31;27.45;;;16.88;;
51495;SDS011;37572;52.094;4.870;2024-03-08T09:48:00;26.70;;;15.52;;
51495;SDS011;37572;52.094;4.870;2024-03-08T09:50:26;26.95;;;15.13;;
51495;SDS011;37572;52.094;4.870;2024-03-08T09:52:52;31.80;;;14.90;;
51495;SDS011;37572;52.094;4.870;2024-03-08T09:55:22;25.33;;;14.77;;
51495;SDS011;37572;52.094;4.870;2024-03-08T09:57:47;25.20;;;15.02;;
51495;SDS011;37572;52.094;4.870;2024-03-08T10:00:33;24.60;;;15.40;;
51495;SDS011;37572;52.094;4.870;2024-03-08T10:03:02;27.05;;;15.73;;
51495;SDS011;37572;52.094;4.870;2024-03-08T10:05:28;26.25;;;15.40;;
51495;SDS011;37572;52.094;4.870;2024-03-08T10:07:55;25.13;;;15.90;;
51495;SDS011;37572;52.094;4.870;2024-03-08T10:10:20;24.95;;;15.30;;
51495;SDS011;37572;52.094;4.870;2024-03-08T10:12:46;23.77;;;14.70;;
51495;SDS011;37572;52.094;4.870;2024-03-08T10:15:15;24.13;;;14.70;;
51495;SDS011;37572;52.094;4.870;2024-03-08T10:17:41;24.15;;;14.13;;
51495;SDS011;37572;52.094;4.870;2024-03-08T10:20:14;25.83;;;14.80;;
51495;SDS011;37572;52.094;4.870;2024-03-08T10:22:44;26.70;;;15.68;;
51495;SDS011;37572;52.094;4.870;2024-03-08T10:25:12;22.70;;;14.52;;
51495;SDS011;37572;52.094;4.870;2024-03-08T10:27:38;25.65;;;15.13;;
51495;SDS011;37572;52.094;4.870;2024-03-08T10:30:11;25.75;;;15.15;;
51495;SDS011;37572;52.094;4.870;2024-03-08T10:35:06;25.48;;;15.90;;
51495;SDS011;37572;52.094;4.870;2024-03-08T10:37:33;22.05;;;14.05;;
51495;SDS011;37572;52.094;4.870;2024-03-08T10:40:15;24.75;;;14.02;;
51495;SDS011;37572;52.094;4.870;2024-03-08T10:42:52;24.13;;;13.98;;
51495;SDS011;37572;52.094;4.870;2024-03-08T10:47:50;22.98;;;14.73;;
51495;SDS011;37572;52.094;4.870;2024-03-08T10:50:28;23.35;;;14.68;;
51495;SDS011;37572;52.094;4.870;2024-03-08T10:52:58;23.08;;;14.25;;
51495;SDS011;37572;52.094;4.870;2024-03-08T10:55:26;22.50;;;14.40;;
51495;SDS011;37572;52.094;4.870;2024-03-08T10:57:53;24.83;;;13.70;;
51495;SDS011;37572;52.094;4.870;2024-03-08T11:00:19;23.83;;;14.05;;
51495;SDS011;37572;52.094;4.870;2024-03-08T11:02:51;22.85;;;14.15;;
51495;SDS011;37572;52.094;4.870;2024-03-08T11:05:31;23.42;;;13.50;;
51495;SDS011;37572;52.094;4.870;2024-03-08T11:10:48;20.42;;;12.80;;
51495;SDS011;37572;52.094;4.870;2024-03-08T11:16:09;21.30;;;12.18;;
51495;SDS011;37572;52.094;4.870;2024-03-08T11:18:35;21.13;;;12.95;;
51495;SDS011;37572;52.094;4.870;2024-03-08T11:21:02;24.08;;;14.68;;
51495;SDS011;37572;52.094;4.870;2024-03-08T11:23:32;21.98;;;14.35;;
51495;SDS011;37572;52.094;4.870;2024-03-08T11:25:58;20.25;;;12.40;;
51495;SDS011;37572;52.094;4.870;2024-03-08T11:28:24;22.88;;;15.40;;
51495;SDS011;37572;52.094;4.870;2024-03-08T11:33:27;20.15;;;12.05;;
51495;SDS011;37572;52.094;4.870;2024-03-08T11:36:03;18.33;;;11.32;;
51495;SDS011;37572;52.094;4.870;2024-03-08T11:38:42;20.67;;;11.88;;
51495;SDS011;37572;52.094;4.870;2024-03-08T11:41:09;17.95;;;10.85;;
51495;SDS011;37572;52.094;4.870;2024-03-08T11:43:37;17.92;;;11.15;;
51495;SDS011;37572;52.094;4.870;2024-03-08T11:46:13;16.15;;;10.95;;
51495;SDS011;37572;52.094;4.870;2024-03-08T11:48:40;16.48;;;10.25;;
51495;SDS011;37572;52.094;4.870;2024-03-08T11:51:12;16.80;;;11.70;;
51495;SDS011;37572;52.094;4.870;2024-03-08T11:53:39;16.55;;;11.82;;
51495;SDS011;37572;52.094;4.870;2024-03-08T11:56:09;15.23;;;10.00;;
51495;SDS011;37572;52.094;4.870;2024-03-08T11:58:36;16.98;;;10.60;;
51495;SDS011;37572;52.094;4.870;2024-03-08T12:01:05;17.20;;;10.40;;
51495;SDS011;37572;52.094;4.870;2024-03-08T12:03:32;18.40;;;10.38;;
51495;SDS011;37572;52.094;4.870;2024-03-08T12:05:59;15.18;;;10.02;;
51495;SDS011;37572;52.094;4.870;2024-03-08T12:08:25;16.60;;;10.05;;
51495;SDS011;37572;52.094;4.870;2024-03-08T12:10:53;14.95;;;9.48;;
51495;SDS011;37572;52.094;4.870;2024-03-08T12:15:57;16.63;;;10.30;;
51495;SDS011;37572;52.094;4.870;2024-03-08T12:18:26;17.27;;;9.65;;
51495;SDS011;37572;52.094;4.870;2024-03-08T12:21:08;14.60;;;9.95;;
51495;SDS011;37572;52.094;4.870;2024-03-08T12:23:46;17.10;;;10.80;;
51495;SDS011;37572;52.094;4.870;2024-03-08T12:26:23;16.40;;;10.90;;
51495;SDS011;37572;52.094;4.870;2024-03-08T12:28:49;16.60;;;10.18;;
51495;SDS011;37572;52.094;4.870;2024-03-08T12:31:18;16.80;;;10.88;;
51495;SDS011;37572;52.094;4.870;2024-03-08T12:33:55;17.23;;;10.55;;
51495;SDS011;37572;52.094;4.870;2024-03-08T12:36:24;17.42;;;10.52;;
51495;SDS011;37572;52.094;4.870;2024-03-08T12:38:50;16.75;;;11.57;;
51495;SDS011;37572;52.094;4.870;2024-03-08T12:41:16;19.75;;;12.48;;
51495;SDS011;37572;52.094;4.870;2024-03-08T12:43:43;18.10;;;11.88;;
51495;SDS011;37572;52.094;4.870;2024-03-08T12:46:17;19.58;;;12.50;;
51495;SDS011;37572;52.094;4.870;2024-03-08T12:48:45;18.40;;;12.05;;
51495;SDS011;37572;52.094;4.870;2024-03-08T12:51:15;19.13;;;12.10;;
51495;SDS011;37572;52.094;4.870;2024-03-08T12:53:43;18.40;;;11.45;;
51495;SDS011;37572;52.094;4.870;2024-03-08T12:56:11;17.55;;;11.32;;
51495;SDS011;37572;52.094;4.870;2024-03-08T12:58:37;20.15;;;12.82;;
51495;SDS011;37572;52.094;4.870;2024-03-08T13:01:04;18.67;;;11.85;;
51495;SDS011;37572;52.094;4.870;2024-03-08T13:03:35;17.65;;;11.85;;
51495;SDS011;37572;52.094;4.870;2024-03-08T13:06:02;19.05;;;11.82;;
51495;SDS011;37572;52.094;4.870;2024-03-08T13:08:30;17.85;;;11.73;;
51495;SDS011;37572;52.094;4.870;2024-03-08T13:10:56;17.63;;;12.82;;
51495;SDS011;37572;52.094;4.870;2024-03-08T13:13:21;15.70;;;11.63;;
51495;SDS011;37572;52.094;4.870;2024-03-08T13:15:47;16.70;;;11.77;;
51495;SDS011;37572;52.094;4.870;2024-03-08T13:18:13;17.15;;;11.65;;
51495;SDS011;37572;52.094;4.870;2024-03-08T13:20:40;18.77;;;12.48;;
51495;SDS011;37572;52.094;4.870;2024-03-08T13:23:08;17.25;;;12.68;;
51495;SDS011;37572;52.094;4.870;2024-03-08T13:25:34;18.17;;;12.60;;
51495;SDS011;37572;52.094;4.870;2024-03-08T13:27:59;20.95;;;13.25;;
51495;SDS011;37572;52.094;4.870;2024-03-08T13:30:25;19.00;;;12.57;;
51495;SDS011;37572;52.094;4.870;2024-03-08T13:32:52;20.85;;;13.32;;
51495;SDS011;37572;52.094;4.870;2024-03-08T13:35:18;17.75;;;13.13;;
51495;SDS011;37572;52.094;4.870;2024-03-08T13:37:49;22.60;;;14.88;;
51495;SDS011;37572;52.094;4.870;2024-03-08T13:40:16;20.33;;;13.18;;
51495;SDS011;37572;52.094;4.870;2024-03-08T13:42:43;21.25;;;13.32;;
51495;SDS011;37572;52.094;4.870;2024-03-08T13:45:09;21.83;;;13.43;;
51495;SDS011;37572;52.094;4.870;2024-03-08T13:47:39;19.17;;;12.13;;
51495;SDS011;37572;52.094;4.870;2024-03-08T13:50:06;19.33;;;13.40;;
51495;SDS011;37572;52.094;4.870;2024-03-08T13:52:33;18.40;;;13.10;;
51495;SDS011;37572;52.094;4.870;2024-03-08T13:54:59;20.35;;;11.68;;
51495;SDS011;37572;52.094;4.870;2024-03-08T13:57:28;20.30;;;13.35;;
51495;SDS011;37572;52.094;4.870;2024-03-08T13:59:53;22.35;;;15.48;;
51495;SDS011;37572;52.094;4.870;2024-03-08T14:02:18;21.73;;;13.00;;
51495;SDS011;37572;52.094;4.870;2024-03-08T14:04:44;19.95;;;12.20;;
51495;SDS011;37572;52.094;4.870;2024-03-08T14:07:09;20.53;;;12.57;;
51495;SDS011;37572;52.094;4.870;2024-03-08T14:09:36;23.75;;;12.65;;
51495;SDS011;37572;52.094;4.870;2024-03-08T14:12:05;20.95;;;12.60;;
51495;SDS011;37572;52.094;4.870;2024-03-08T14:14:33;21.63;;;12.88;;
51495;SDS011;37572;52.094;4.870;2024-03-08T14:17:00;19.48;;;13.57;;
51495;SDS011;37572;52.094;4.870;2024-03-08T14:19:27;21.98;;;13.02;;
51495;SDS011;37572;52.094;4.870;2024-03-08T14:21:53;21.80;;;12.85;;
51495;SDS011;37572;52.094;4.870;2024-03-08T14:24:18;17.42;;;11.85;;
51495;SDS011;37572;52.094;4.870;2024-03-08T14:26:44;18.85;;;13.55;;
51495;SDS011;37572;52.094;4.870;2024-03-08T14:29:09;21.38;;;12.73;;
51495;SDS011;37572;52.094;4.870;2024-03-08T14:31:38;22.80;;;12.98;;
51495;SDS011;37572;52.094;4.870;2024-03-08T14:34:03;19.42;;;12.98;;
51495;SDS011;37572;52.094;4.870;2024-03-08T14:36:29;20.52;;;12.48;;